Time;durP1;ratioP1;P1;durP2;ratioP2;P2;SDS_P1;SDS_P2;PMS_P1;PMS_P2;Temp;Humidity;BMP_temperature;BMP_pressure;BME280_temperature;BME280_humidity;BME280_pressure;Samples;Min_cycle;Max_cycle;Signal;HPM_P1;HPM_P2
2022/09/24 00:02:10;;;;;;;;;;;;;;;11.55;58.49;100635.28;5335473;32;35399;-72
2022/09/24 00:05:13;;;;;;;;;;;;;;;11.25;58.64;100633.81;5317057;32;34048;-66
2022/09/24 00:08:15;;;;;;;;;;;;;;;11.24;59.28;100635.59;5341259;32;33523;-66
2022/09/24 00:11:20;;;;;;;;;;;;;;;11.24;59.16;100640.87;5309515;32;34426;-74
2022/09/24 00:14:22;;;;;;;;;;;;;;;10.58;61.17;100650.28;5326759;32;45476;-67
2022/09/24 00:17:24;;;;;;;;;;;;;;;10.44;62.19;100637.63;5325292;32;33188;-75
2022/09/24 00:20:25;;;;;;;;;;;;;;;11.06;59.88;100631.03;5329624;32;33455;-66
2022/09/24 00:23:27;;;;;;;;;;;;;;;10.69;61.39;100632.38;5345101;32;33394;-75
2022/09/24 00:29:50;;;;;;;;;;;;;;;10.78;61.31;100636.44;5329207;32;34242;-66
2022/09/24 00:32:52;;;;;;;;;;;;;;;12.09;56.84;100633.16;5294336;33;45559;-67
2022/09/24 00:35:57;;;;;;;;;;;;;;;11.69;57.38;100632.09;5336257;32;33477;-66
2022/09/24 00:38:59;;;;;;;;;;;;;;;11.33;58.95;100637.00;5316702;32;33112;-74
2022/09/24 00:42:01;;;;;;;;;;;;;;;11.69;58.21;100631.25;5324532;32;33458;-74
2022/09/24 00:45:03;;;;;;;;;;;;;;;11.89;57.03;100621.66;5321412;32;34301;-75
2022/09/24 00:48:06;;;;;;;;;;;;;;;11.95;56.76;100617.06;5312069;32;33482;-66
2022/09/24 00:51:09;;;;;;;;;;;;;;;11.51;58.46;100627.56;5344537;32;33436;-67
2022/09/24 00:54:15;;;;;;;;;;;;;;;12.05;56.69;100621.91;5327702;32;32810;-67
2022/09/24 00:57:16;;;;;;;;;;;;;;;12.00;56.65;100617.75;5342937;32;34082;-66
2022/09/24 01:00:18;;;;;;;;;;;;;;;11.45;58.77;100619.91;5325326;32;33702;-67
2022/09/24 01:03:21;;;;;;;;;;;;;;;11.73;57.76;100604.75;5316949;32;33604;-75
2022/09/24 01:06:26;;;;;;;;;;;;;;;11.73;58.15;100610.00;5332532;32;44638;-66
2022/09/24 01:09:28;;;;;;;;;;;;;;;11.76;57.84;100596.72;5323875;32;34452;-65
2022/09/24 01:12:39;;;;;;;;;;;;;;;11.56;58.60;100609.81;5328071;32;33674;-66
2022/09/24 01:15:44;;;;;;;;;;;;;;;11.36;59.37;100605.34;5325291;32;33763;-66
2022/09/24 01:18:49;;;;;;;;;;;;;;;10.02;64.52;100614.50;5331228;32;34454;-67
2022/09/24 01:21:54;;;;;;;;;;;;;;;9.67;66.31;100610.41;5332981;32;33072;-66
2022/09/24 01:25:00;;;;;;;;;;;;;;;9.18;68.61;100616.28;5325949;32;45962;-66
2022/09/24 01:28:12;;;;;;;;;;;;;;;9.44;67.74;100600.59;5343352;32;33080;-72
2022/09/24 01:31:16;;;;;;;;;;;;;;;9.68;67.23;100600.75;5329825;32;32735;-66
2022/09/24 01:34:18;;;;;;;;;;;;;;;10.54;63.21;100596.97;5342540;32;34102;-72
2022/09/24 01:37:21;;;;;;;;;;;;;;;10.36;63.81;100597.59;5319412;32;33470;-67
2022/09/24 01:40:23;;;;;;;;;;;;;;;9.80;65.55;100600.38;5316550;32;45227;-66
2022/09/24 01:43:26;;;;;;;;;;;;;;;10.10;64.87;100600.25;5335060;32;33068;-74
2022/09/24 01:46:28;;;;;;;;;;;;;;;10.65;62.44;100598.38;5297649;32;35702;-74
2022/09/24 01:49:30;;;;;;;;;;;;;;;10.78;62.11;100595.25;5328803;32;34184;-75
2022/09/24 01:52:43;;;;;;;;;;;;;;;10.69;62.08;100595.59;5325012;32;33424;-67
2022/09/24 01:55:48;;;;;;;;;;;;;;;10.83;61.59;100593.31;5306338;32;34759;-75
2022/09/24 01:58:51;;;;;;;;;;;;;;;10.09;66.25;100588.88;5331695;32;34581;-72
2022/09/24 02:02:05;;;;;;;;;;;;;;;10.46;64.35;100591.12;5324513;32;45348;-66
2022/09/24 02:05:13;;;;;;;;;;;;;;;10.88;62.45;100590.47;5339832;32;32997;-66
2022/09/24 02:08:21;;;;;;;;;;;;;;;10.92;62.21;100589.47;5337601;32;33097;-66
2022/09/24 02:11:23;;;;;;;;;;;;;;;11.36;60.34;100576.37;5341093;32;44866;-74
2022/09/24 02:14:24;;;;;;;;;;;;;;;11.43;59.87;100588.38;5338046;32;34180;-76
2022/09/24 02:17:27;;;;;;;;;;;;;;;11.50;59.78;100586.37;5326140;32;33250;-74
2022/09/24 02:20:29;;;;;;;;;;;;;;;10.08;65.16;100597.69;5341530;32;33560;-66
2022/09/24 02:23:31;;;;;;;;;;;;;;;10.00;66.79;100592.69;5308283;32;34048;-75
2022/09/24 02:26:33;;;;;;;;;;;;;;;10.10;66.50;100595.00;5321335;32;33910;-66
2022/09/24 02:29:34;;;;;;;;;;;;;;;10.72;63.92;100594.59;5311550;32;32784;-66
2022/09/24 02:32:38;;;;;;;;;;;;;;;11.25;61.48;100595.22;5336422;32;33214;-75
2022/09/24 02:35:41;;;;;;;;;;;;;;;10.81;62.79;100594.25;5317708;32;34197;-74
2022/09/24 02:38:45;;;;;;;;;;;;;;;10.76;63.15;100597.06;5338965;32;33413;-66
2022/09/24 02:41:47;;;;;;;;;;;;;;;11.31;61.48;100584.44;5324277;32;33615;-65
2022/09/24 02:44:49;;;;;;;;;;;;;;;11.37;60.78;100584.22;5295501;32;33992;-74
2022/09/24 02:47:51;;;;;;;;;;;;;;;10.67;63.01;100588.66;5339361;32;33498;-74
2022/09/24 02:50:53;;;;;;;;;;;;;;;10.56;64.53;100595.16;5325718;32;44644;-74
2022/09/24 02:53:55;;;;;;;;;;;;;;;11.13;62.10;100593.06;5335814;32;33833;-74
2022/09/24 02:56:57;;;;;;;;;;;;;;;11.32;60.97;100586.16;5330207;32;34182;-66
2022/09/24 02:59:59;;;;;;;;;;;;;;;11.05;61.82;100592.50;5324021;32;34029;-75
2022/09/24 03:03:00;;;;;;;;;;;;;;;10.11;65.49;100587.09;5340340;32;33593;-66
2022/09/24 03:06:03;;;;;;;;;;;;;;;9.52;68.50;100596.87;5322731;32;33890;-74
2022/09/24 03:09:05;;;;;;;;;;;;;;;9.78;67.97;100592.50;5324858;32;33861;-66
2022/09/24 03:12:07;;;;;;;;;;;;;;;10.61;64.78;100589.72;5307596;32;33148;-67
2022/09/24 03:15:09;;;;;;;;;;;;;;;11.00;62.46;100590.03;5327429;32;33588;-72
2022/09/24 03:18:11;;;;;;;;;;;;;;;9.63;67.32;100589.53;5328760;32;34583;-72
2022/09/24 03:21:14;;;;;;;;;;;;;;;9.40;70.74;100588.50;5316233;32;33489;-72
2022/09/24 03:24:16;;;;;;;;;;;;;;;9.56;69.54;100583.63;5336577;32;33646;-74
2022/09/24 03:27:20;;;;;;;;;;;;;;;9.74;68.71;100576.94;5322652;32;33409;-73
2022/09/24 03:33:43;;;;;;;;;;;;;;;8.92;72.09;100567.25;5325607;32;33789;-66
2022/09/24 03:36:45;;;;;;;;;;;;;;;9.34;70.97;100566.84;5306743;32;32986;-74
2022/09/24 03:39:47;;;;;;;;;;;;;;;9.60;69.37;100573.91;5331128;32;34008;-66
2022/09/24 03:42:48;;;;;;;;;;;;;;;8.92;72.42;100570.72;5311836;32;34601;-72
2022/09/24 03:45:50;;;;;;;;;;;;;;;8.65;73.20;100576.75;5333236;32;33620;-67
2022/09/24 03:48:52;;;;;;;;;;;;;;;9.87;68.83;100564.28;5325487;32;44667;-74
2022/09/24 03:51:54;;;;;;;;;;;;;;;10.76;63.25;100576.03;5340382;32;34921;-66
2022/09/24 03:54:56;;;;;;;;;;;;;;;9.53;68.20;100569.72;5318216;32;33350;-67
2022/09/24 03:57:58;;;;;;;;;;;;;;;8.98;71.71;100567.06;5305588;33;33945;-66
2022/09/24 04:01:00;;;;;;;;;;;;;;;9.16;71.62;100571.75;5323955;32;33097;-74
2022/09/24 04:04:02;;;;;;;;;;;;;;;9.77;68.14;100564.56;5315165;32;33445;-66
2022/09/24 04:07:04;;;;;;;;;;;;;;;9.43;70.24;100564.78;5333251;32;33550;-73
2022/09/24 04:10:07;;;;;;;;;;;;;;;10.04;66.75;100559.28;5315580;32;33929;-74
2022/09/24 04:13:09;;;;;;;;;;;;;;;10.36;64.99;100559.97;5338233;32;34377;-75
2022/09/24 04:16:11;;;;;;;;;;;;;;;10.44;64.31;100568.47;5322903;32;33580;-69
2022/09/24 04:19:17;;;;;;;;;;;;;;;8.93;70.75;100561.94;5310743;32;33417;-75
2022/09/24 04:22:19;;;;;;;;;;;;;;;9.35;70.08;100558.94;5330999;32;31873;-74
2022/09/24 04:25:21;;;;;;;;;;;;;;;9.74;68.51;100556.78;5315016;32;33743;-73
2022/09/24 04:28:24;;;;;;;;;;;;;;;10.37;64.68;100561.69;5324371;32;44485;-67
2022/09/24 04:31:26;;;;;;;;;;;;;;;10.25;65.16;100561.22;5324154;32;34324;-74
2022/09/24 04:34:28;;;;;;;;;;;;;;;9.98;65.62;100562.13;5339622;32;33487;-65
2022/09/24 04:37:30;;;;;;;;;;;;;;;9.21;69.29;100569.84;5324641;32;33589;-73
2022/09/24 04:40:31;;;;;;;;;;;;;;;9.93;67.63;100558.81;5325707;32;33391;-66
2022/09/24 04:43:35;;;;;;;;;;;;;;;10.21;65.52;100564.81;5318569;32;33727;-74
2022/09/24 04:46:39;;;;;;;;;;;;;;;9.27;69.48;100557.44;5319478;32;33059;-71
2022/09/24 04:49:44;;;;;;;;;;;;;;;9.82;67.58;100553.91;5340624;32;33319;-73
2022/09/24 04:52:46;;;;;;;;;;;;;;;9.31;69.35;100559.94;5323382;32;33645;-66
2022/09/24 04:55:48;;;;;;;;;;;;;;;9.04;69.78;100556.38;5324182;32;33999;-75
2022/09/24 04:58:50;;;;;;;;;;;;;;;9.49;68.93;100561.97;5313494;32;34137;-72
2022/09/24 05:01:53;;;;;;;;;;;;;;;10.41;64.50;100558.03;5322346;32;43173;-66
2022/09/24 05:04:55;;;;;;;;;;;;;;;10.75;63.00;100571.66;5338701;32;34211;-65
2022/09/24 05:07:57;;;;;;;;;;;;;;;9.85;65.70;100564.28;5312109;32;34200;-65
2022/09/24 05:11:01;;;;;;;;;;;;;;;9.98;66.66;100576.13;5323172;32;33693;-64
2022/09/24 05:14:04;;;;;;;;;;;;;;;9.99;65.71;100572.59;5309629;32;34064;-66
2022/09/24 05:17:06;;;;;;;;;;;;;;;9.44;69.10;100568.28;5322851;32;32998;-73
2022/09/24 05:20:10;;;;;;;;;;;;;;;9.29;69.50;100571.38;5324392;32;32925;-66
2022/09/24 05:23:11;;;;;;;;;;;;;;;9.12;70.13;100566.63;5308866;32;33887;-74
2022/09/24 05:29:34;;;;;;;;;;;;;;;11.11;63.96;100542.28;5325819;32;33695;-72
2022/09/24 05:32:38;;;;;;;;;;;;;;;11.49;61.83;100548.66;5340616;32;32992;-75
2022/09/24 05:35:40;;;;;;;;;;;;;;;11.57;60.44;100553.62;5315393;32;31851;-72
2022/09/24 05:38:42;;;;;;;;;;;;;;;11.41;61.28;100557.78;5310018;32;33120;-65
2022/09/24 05:41:44;;;;;;;;;;;;;;;10.73;63.95;100567.41;5341319;32;33255;-66
2022/09/24 05:44:47;;;;;;;;;;;;;;;11.74;59.54;100551.16;5296559;32;33566;-67
2022/09/24 05:47:53;;;;;;;;;;;;;;;10.69;63.28;100557.91;5322916;32;45090;-74
2022/09/24 05:50:55;;;;;;;;;;;;;;;11.20;61.41;100554.22;5323083;32;33806;-67
2022/09/24 05:53:57;;;;;;;;;;;;;;;10.64;63.84;100558.09;5341500;32;33483;-74
2022/09/24 05:56:59;;;;;;;;;;;;;;;10.35;63.73;100558.25;5325861;32;34144;-74
2022/09/24 06:00:00;;;;;;;;;;;;;;;10.02;65.98;100569.84;5327340;32;33196;-66
2022/09/24 06:03:04;;;;;;;;;;;;;;;11.03;63.04;100573.28;5341469;32;34350;-67
2022/09/24 06:06:06;;;;;;;;;;;;;;;11.21;61.15;100563.84;5321833;32;33852;-66
2022/09/24 06:09:08;;;;;;;;;;;;;;;11.49;60.58;100582.03;5323854;32;33704;-71
2022/09/24 06:12:10;;;;;;;;;;;;;;;12.02;59.36;100576.37;5306305;33;33061;-75
2022/09/24 06:15:13;;;;;;;;;;;;;;;11.71;59.47;100574.97;5332116;32;33223;-65
2022/09/24 06:18:14;;;;;;;;;;;;;;;12.98;56.73;100567.69;5313445;32;33996;-66
2022/09/24 06:21:19;;;;;;;;;;;;;;;13.40;55.30;100571.09;5306819;32;33691;-74
2022/09/24 06:24:23;;;;;;;;;;;;;;;12.89;56.06;100575.19;5324303;32;44702;-67
2022/09/24 06:27:25;;;;;;;;;;;;;;;13.71;54.23;100567.78;5323898;32;35982;-75
2022/09/24 06:30:26;;;;;;;;;;;;;;;14.25;51.80;100565.97;5340809;32;33461;-75
2022/09/24 06:33:29;;;;;;;;;;;;;;;14.76;51.24;100572.16;5324939;32;33834;-67
2022/09/24 06:36:31;;;;;;;;;;;;;;;13.18;54.17;100572.06;5335846;32;34165;-67
2022/09/24 06:39:33;;;;;;;;;;;;;;;13.70;53.47;100563.44;5330205;32;34355;-72
2022/09/24 06:42:35;;;;;;;;;;;;;;;14.59;52.07;100568.59;5314887;32;34208;-68
2022/09/24 06:45:36;;;;;;;;;;;;;;;16.50;46.52;100570.16;5329890;32;33846;-66
2022/09/24 06:48:38;;;;;;;;;;;;;;;15.22;49.34;100570.50;5323433;32;33363;-74
2022/09/24 06:51:40;;;;;;;;;;;;;;;15.73;48.08;100565.03;5340084;32;33115;-75
2022/09/24 06:54:42;;;;;;;;;;;;;;;16.33;46.85;100562.34;5325885;32;34145;-67
2022/09/24 06:57:44;;;;;;;;;;;;;;;16.97;44.49;100566.37;5336253;32;32889;-75
2022/09/24 07:00:53;;;;;;;;;;;;;;;17.28;43.79;100563.50;5329032;32;33055;-67
2022/09/24 07:03:55;;;;;;;;;;;;;;;17.35;42.96;100557.78;5317110;32;44558;-75
2022/09/24 07:10:18;;;;;;;;;;;;;;;13.51;53.81;100577.53;5316575;32;33576;-76
2022/09/24 07:13:22;;;;;;;;;;;;;;;13.99;52.09;100576.06;5341418;32;32930;-74
2022/09/24 07:16:24;;;;;;;;;;;;;;;13.51;54.54;100587.25;5321195;32;46301;-77
2022/09/24 07:19:26;;;;;;;;;;;;;;;13.61;53.85;100595.59;5325903;32;34706;-66
2022/09/24 07:22:28;;;;;;;;;;;;;;;13.92;52.79;100587.88;5330696;32;33577;-75
2022/09/24 07:25:30;;;;;;;;;;;;;;;14.58;51.34;100598.62;5303473;32;33553;-76
2022/09/24 07:28:32;;;;;;;;;;;;;;;16.35;46.78;100586.97;5331827;32;33025;-75
2022/09/24 07:31:35;;;;;;;;;;;;;;;16.15;46.35;100585.50;5323583;32;32901;-68
2022/09/24 07:34:37;;;;;;;;;;;;;;;16.14;46.14;100589.09;5340099;32;33543;-67
2022/09/24 07:37:39;;;;;;;;;;;;;;;15.70;47.21;100603.13;5326988;32;33646;-72
2022/09/24 07:40:43;;;;;;;;;;;;;;;15.29;48.78;100603.63;5323411;32;33434;-74
2022/09/24 07:43:46;;;;;;;;;;;;;;;16.26;46.29;100593.69;5316972;32;34737;-67
2022/09/24 07:46:50;;;;;;;;;;;;;;;17.28;43.23;100592.72;5324071;32;33622;-66
2022/09/24 07:49:52;;;;;;;;;;;;;;;18.35;40.99;100591.00;5332110;32;47513;-67
2022/09/24 07:52:54;;;;;;;;;;;;;;;18.26;41.11;100590.75;5306536;32;32657;-67
2022/09/24 07:56:00;;;;;;;;;;;;;;;16.67;44.99;100596.50;5319645;32;33807;-67
2022/09/24 07:59:01;;;;;;;;;;;;;;;17.73;42.35;100604.03;5314553;32;34360;-72
2022/09/24 08:02:07;;;;;;;;;;;;;;;17.31;43.25;100604.94;5324506;32;32954;-76
2022/09/24 08:05:09;;;;;;;;;;;;;;;19.05;39.18;100595.91;5337485;32;32831;-66
2022/09/24 08:08:12;;;;;;;;;;;;;;;17.36;43.00;100602.84;5335402;32;33562;-72
2022/09/24 08:11:16;;;;;;;;;;;;;;;15.85;46.38;100596.13;5340976;32;34186;-75
2022/09/24 08:14:17;;;;;;;;;;;;;;;15.85;46.66;100588.16;5337167;32;33510;-74
2022/09/24 08:17:20;;;;;;;;;;;;;;;17.25;43.51;100592.91;5334394;32;33553;-67
2022/09/24 08:20:23;;;;;;;;;;;;;;;17.06;44.16;100579.06;5330813;32;34102;-67
2022/09/24 08:23:25;;;;;;;;;;;;;;;17.65;41.75;100579.72;5306743;32;47356;-66
2022/09/24 08:26:27;;;;;;;;;;;;;;;18.74;39.30;100578.59;5319059;32;33689;-75
2022/09/24 08:29:29;;;;;;;;;;;;;;;19.09;38.52;100585.87;5320217;32;33683;-67
2022/09/24 08:32:31;;;;;;;;;;;;;;;18.56;39.17;100593.13;5341001;32;34108;-73
2022/09/24 08:35:33;;;;;;;;;;;;;;;18.57;39.13;100585.03;5322511;32;32863;-74
2022/09/24 08:38:35;;;;;;;;;;;;;;;18.87;38.47;100566.13;5331745;32;34413;-74
2022/09/24 08:41:43;;;;;;;;;;;;;;;19.40;37.22;100558.72;5319610;32;33567;-67
2022/09/24 08:48:13;;;;;;;;;;;;;;;19.26;37.19;100553.56;5339430;32;33296;-67
2022/09/24 08:51:16;;;;;;;;;;;;;;;17.72;40.29;100561.59;5322576;32;33487;-67
2022/09/24 08:54:18;;;;;;;;;;;;;;;18.49;39.13;100565.25;5334327;32;33962;-74
2022/09/24 08:57:20;;;;;;;;;;;;;;;18.57;38.71;100558.44;5328151;32;34150;-66
2022/09/24 09:00:22;;;;;;;;;;;;;;;18.23;38.93;100557.25;5313454;32;44769;-68
2022/09/24 09:03:30;;;;;;;;;;;;;;;18.59;38.54;100566.28;5329344;32;33553;-74
2022/09/24 09:06:35;;;;;;;;;;;;;;;19.04;37.49;100556.91;5318499;32;33677;-67
2022/09/24 09:09:41;;;;;;;;;;;;;;;20.27;35.26;100548.66;5324504;32;33166;-66
2022/09/24 09:12:49;;;;;;;;;;;;;;;19.88;36.43;100550.75;5306812;33;33021;-75
2022/09/24 09:16:00;;;;;;;;;;;;;;;18.83;37.99;100553.97;5323083;32;34225;-73
2022/09/24 09:19:03;;;;;;;;;;;;;;;19.41;37.30;100527.59;5332879;32;34146;-68
2022/09/24 09:22:15;;;;;;;;;;;;;;;21.06;34.47;100534.44;5320739;32;32861;-74
2022/09/24 09:25:19;;;;;;;;;;;;;;;21.25;33.57;100522.22;5335970;32;33062;-67
2022/09/24 09:28:21;;;;;;;;;;;;;;;20.69;34.99;100530.31;5321856;32;34120;-76
2022/09/24 09:31:22;;;;;;;;;;;;;;;20.32;34.91;100525.16;5338250;32;44486;-75
2022/09/24 09:34:28;;;;;;;;;;;;;;;19.63;36.74;100533.06;5328827;32;33688;-67
2022/09/24 09:37:49;;;;;;;;;;;;;;;21.90;32.41;100516.81;5325511;32;33638;-67
2022/09/24 09:40:50;;;;;;;;;;;;;;;22.24;31.44;100518.47;5340914;32;33599;-66
2022/09/24 09:43:59;;;;;;;;;;;;;;;23.11;30.33;100503.62;5301211;32;44805;-66
2022/09/24 09:47:10;;;;;;;;;;;;;;;23.40;29.50;100509.06;5340201;32;33788;-67
2022/09/24 09:50:31;;;;;;;;;;;;;;;23.08;30.57;100498.56;5325827;32;33751;-68
2022/09/24 09:53:33;;;;;;;;;;;;;;;22.65;30.32;100505.00;5312248;32;33773;-66
2022/09/24 09:56:36;;;;;;;;;;;;;;;21.80;31.43;100507.00;5340147;32;34154;-75
2022/09/24 09:59:37;;;;;;;;;;;;;;;22.56;30.74;100507.66;5323468;32;33945;-75
2022/09/24 10:02:40;;;;;;;;;;;;;;;23.07;29.82;100506.75;5339697;32;33352;-74
2022/09/24 10:05:42;;;;;;;;;;;;;;;23.18;29.50;100504.78;5325925;32;34045;-67
2022/09/24 10:08:44;;;;;;;;;;;;;;;23.37;29.02;100503.09;5326274;32;34236;-74
2022/09/24 10:11:46;;;;;;;;;;;;;;;22.31;29.65;100500.91;5322668;32;34001;-75
2022/09/24 10:14:58;;;;;;;;;;;;;;;22.94;29.40;100497.13;5324786;32;33896;-66
2022/09/24 10:18:00;;;;;;;;;;;;;;;21.46;31.94;100496.47;5339513;32;46315;-67
2022/09/24 10:21:08;;;;;;;;;;;;;;;22.45;30.60;100500.53;5321162;32;34287;-68
2022/09/24 10:24:12;;;;;;;;;;;;;;;21.96;31.75;100493.16;5322491;32;33029;-73
2022/09/24 10:27:22;;;;;;;;;;;;;;;22.38;31.35;100494.87;5323960;32;34478;-67
2022/09/24 10:30:33;;;;;;;;;;;;;;;23.24;29.87;100477.41;5310012;32;45027;-75
2022/09/24 10:33:39;;;;;;;;;;;;;;;21.91;32.02;100490.91;5322057;32;33420;-67
2022/09/24 10:36:48;;;;;;;;;;;;;;;22.40;30.60;100482.19;5324980;32;34021;-66
2022/09/24 10:39:57;;;;;;;;;;;;;;;21.62;31.75;100480.81;5339764;32;34721;-75
2022/09/24 10:43:00;;;;;;;;;;;;;;;20.96;32.97;100482.69;5307895;32;44546;-75
2022/09/24 10:46:02;;;;;;;;;;;;;;;21.83;31.20;100470.16;5321272;32;33628;-69
2022/09/24 10:49:21;;;;;;;;;;;;;;;21.89;30.96;100463.41;5357615;32;33651;-74
2022/09/24 10:52:23;;;;;;;;;;;;;;;20.92;32.19;100470.56;5342308;32;44508;-75
2022/09/24 10:55:28;;;;;;;;;;;;;;;20.33;33.65;100473.47;5357071;32;33146;-74
2022/09/24 10:58:40;;;;;;;;;;;;;;;21.16;31.95;100465.03;5340502;32;34299;-75
2022/09/24 11:01:42;;;;;;;;;;;;;;;21.56;31.03;100469.78;5347532;32;33728;-74
2022/09/24 11:04:56;;;;;;;;;;;;;;;21.45;31.11;100465.34;5337805;32;33738;-66
2022/09/24 11:08:17;;;;;;;;;;;;;;;20.70;32.77;100460.75;5312706;32;45179;-74
2022/09/24 11:11:38;;;;;;;;;;;;;;;20.31;32.78;100466.56;5326104;32;34362;-66
2022/09/24 11:15:03;;;;;;;;;;;;;;;21.07;31.55;100455.97;5321961;32;33083;-72
2022/09/24 11:18:28;;;;;;;;;;;;;;;20.06;32.20;100460.47;5336396;32;33382;-75
2022/09/24 11:21:30;;;;;;;;;;;;;;;21.02;31.10;100450.13;5322541;32;44429;-67
2022/09/24 11:24:35;;;;;;;;;;;;;;;21.48;30.60;100450.87;5322037;32;33420;-76
2022/09/24 11:27:36;;;;;;;;;;;;;;;21.15;32.03;100444.63;5352077;32;33452;-71
2022/09/24 11:30:46;;;;;;;;;;;;;;;19.82;34.71;100452.53;5318239;32;33752;-73
2022/09/24 11:34:07;;;;;;;;;;;;;;;21.03;32.94;100438.47;5324082;32;34647;-67
2022/09/24 11:37:18;;;;;;;;;;;;;;;21.71;30.96;100441.75;5340843;32;33646;-74
2022/09/24 11:40:22;;;;;;;;;;;;;;;21.40;31.26;100430.13;5315794;32;45282;-74
2022/09/24 11:43:38;;;;;;;;;;;;;;;21.84;30.93;100421.00;5319785;32;32489;-67
2022/09/24 11:46:50;;;;;;;;;;;;;;;21.70;31.14;100429.34;5319256;32;35295;-74
2022/09/24 11:49:52;;;;;;;;;;;;;;;20.78;32.80;100417.41;5323460;32;46051;-67
2022/09/24 11:53:05;;;;;;;;;;;;;;;21.79;31.06;100415.19;5339626;32;35658;-66
2022/09/24 11:56:13;;;;;;;;;;;;;;;22.08;30.78;100412.69;5323628;32;33313;-75
2022/09/24 11:59:20;;;;;;;;;;;;;;;22.56;29.72;100409.41;5339771;32;33534;-65
2022/09/24 12:02:25;;;;;;;;;;;;;;;22.29;30.45;100406.50;5323526;32;46165;-67
2022/09/24 12:05:36;;;;;;;;;;;;;;;20.90;32.69;100423.56;5326442;32;33734;-74
2022/09/24 12:08:40;;;;;;;;;;;;;;;20.90;32.67;100408.38;5339413;32;32974;-75
2022/09/24 12:11:51;;;;;;;;;;;;;;;21.75;31.42;100420.94;5324950;32;34093;-67
2022/09/24 12:14:54;;;;;;;;;;;;;;;21.33;31.88;100411.06;5339657;32;45143;-67
2022/09/24 12:17:57;;;;;;;;;;;;;;;21.34;32.10;100390.53;5330637;32;34137;-66
2022/09/24 12:21:09;;;;;;;;;;;;;;;20.59;33.74;100390.50;5351500;32;34216;-74
2022/09/24 12:24:12;;;;;;;;;;;;;;;21.04;33.02;100383.22;5327846;32;33720;-71
2022/09/24 12:27:15;;;;;;;;;;;;;;;20.45;33.93;100395.12;5322199;32;33271;-66
2022/09/24 12:33:44;;;;;;;;;;;;;;;21.45;32.39;100393.16;5319558;32;33825;-67
2022/09/24 12:36:55;;;;;;;;;;;;;;;21.55;32.07;100387.88;5338080;32;33199;-67
2022/09/24 12:40:15;;;;;;;;;;;;;;;21.06;33.28;100383.94;5327675;32;43079;-75
2022/09/24 12:43:24;;;;;;;;;;;;;;;21.09;32.83;100391.69;5302764;32;32768;-67
2022/09/24 12:46:34;;;;;;;;;;;;;;;21.43;31.98;100387.06;5336693;32;46050;-67
2022/09/24 12:49:36;;;;;;;;;;;;;;;21.00;32.54;100379.97;5320097;32;33633;-74
2022/09/24 12:52:38;;;;;;;;;;;;;;;21.20;32.43;100377.44;5325365;32;33216;-75
2022/09/24 12:55:43;;;;;;;;;;;;;;;20.91;33.11;100364.66;5317106;32;33694;-74
2022/09/24 12:58:48;;;;;;;;;;;;;;;21.06;32.88;100374.09;5320247;32;33950;-67
2022/09/24 13:01:50;;;;;;;;;;;;;;;20.83;33.35;100369.81;5339544;32;33849;-67
2022/09/24 13:05:00;;;;;;;;;;;;;;;20.99;33.00;100377.38;5322109;32;44933;-74
2022/09/24 13:08:03;;;;;;;;;;;;;;;20.74;33.11;100373.25;5340018;32;33563;-75
2022/09/24 13:11:23;;;;;;;;;;;;;;;20.99;32.97;100362.19;5304543;32;33575;-68
2022/09/24 13:14:28;;;;;;;;;;;;;;;21.37;32.52;100366.19;5323371;32;44558;-77
2022/09/24 13:17:33;;;;;;;;;;;;;;;21.51;32.22;100362.34;5336973;32;34086;-66
2022/09/24 13:20:36;;;;;;;;;;;;;;;20.98;32.97;100359.66;5334116;32;33495;-68
2022/09/24 13:23:37;;;;;;;;;;;;;;;21.12;32.87;100354.00;5334550;32;34199;-68
2022/09/24 13:26:39;;;;;;;;;;;;;;;21.57;31.96;100362.69;5319324;32;33375;-67
2022/09/24 13:29:41;;;;;;;;;;;;;;;21.02;32.99;100356.63;5337382;32;33509;-75
2022/09/24 13:33:09;;;;;;;;;;;;;;;20.87;33.48;100355.22;5322200;32;34229;-67
2022/09/24 13:36:12;;;;;;;;;;;;;;;20.76;33.37;100348.09;5322237;32;33828;-74
2022/09/24 13:39:22;;;;;;;;;;;;;;;20.75;33.42;100346.41;5337544;32;33509;-66
2022/09/24 13:42:30;;;;;;;;;;;;;;;21.16;32.50;100343.94;5306878;32;44693;-74
2022/09/24 13:45:31;;;;;;;;;;;;;;;21.08;32.54;100344.56;5330447;32;33533;-73
2022/09/24 13:48:37;;;;;;;;;;;;;;;21.26;32.31;100342.19;5325001;32;33585;-67
2022/09/24 13:51:40;;;;;;;;;;;;;;;21.45;31.82;100334.34;5324083;32;32918;-75
2022/09/24 13:54:45;;;;;;;;;;;;;;;21.65;31.48;100340.66;5340415;32;33744;-67
2022/09/24 13:57:47;;;;;;;;;;;;;;;21.48;31.94;100336.72;5325419;32;33557;-66
2022/09/24 14:00:49;;;;;;;;;;;;;;;21.23;32.58;100340.59;5342328;32;34203;-67
2022/09/24 14:03:55;;;;;;;;;;;;;;;20.70;33.61;100326.38;5320139;32;33413;-73
2022/09/24 14:06:57;;;;;;;;;;;;;;;20.89;33.66;100331.06;5334338;32;45147;-67
2022/09/24 14:10:12;;;;;;;;;;;;;;;21.29;32.96;100325.91;5333983;32;34019;-75
2022/09/24 14:13:20;;;;;;;;;;;;;;;21.02;33.49;100332.56;5324471;32;32879;-73
2022/09/24 14:16:23;;;;;;;;;;;;;;;20.55;34.48;100324.00;5353980;32;43962;-74
2022/09/24 14:19:25;;;;;;;;;;;;;;;20.47;34.95;100337.09;5322147;32;33632;-67
2022/09/24 14:22:28;;;;;;;;;;;;;;;21.12;33.85;100331.78;5318435;33;32924;-75
2022/09/24 14:25:32;;;;;;;;;;;;;;;21.18;33.64;100332.13;5314253;32;34350;-73
2022/09/24 14:28:34;;;;;;;;;;;;;;;21.10;33.90;100323.91;5323672;32;33843;-67
2022/09/24 14:31:45;;;;;;;;;;;;;;;20.96;34.10;100316.22;5337167;32;33253;-73
2022/09/24 14:34:49;;;;;;;;;;;;;;;20.91;34.53;100319.25;5324056;32;33239;-68
2022/09/24 14:37:51;;;;;;;;;;;;;;;20.44;35.57;100323.16;5339791;32;33373;-68
2022/09/24 14:40:55;;;;;;;;;;;;;;;20.74;34.91;100317.16;5322253;32;44840;-75
2022/09/24 14:44:02;;;;;;;;;;;;;;;20.38;35.94;100326.31;5303221;32;33576;-67
2022/09/24 14:47:04;;;;;;;;;;;;;;;20.21;35.85;100316.97;5325709;32;33770;-72
2022/09/24 14:50:23;;;;;;;;;;;;;;;20.66;35.12;100315.09;5324566;32;33733;-67
2022/09/24 14:53:34;;;;;;;;;;;;;;;20.17;35.67;100324.41;5327093;32;46994;-73
2022/09/24 14:56:36;;;;;;;;;;;;;;;20.16;35.99;100327.19;5322598;32;33762;-73
2022/09/24 14:59:38;;;;;;;;;;;;;;;20.29;35.76;100323.41;5342234;32;33595;-67
2022/09/24 15:02:40;;;;;;;;;;;;;;;20.66;35.33;100327.59;5321812;32;34446;-68
2022/09/24 15:05:43;;;;;;;;;;;;;;;20.44;35.70;100324.00;5326557;32;32794;-66
2022/09/24 15:08:56;;;;;;;;;;;;;;;20.66;35.36;100316.91;5336355;32;33766;-74
2022/09/24 15:12:08;;;;;;;;;;;;;;;20.66;35.24;100304.41;5320672;32;43779;-67
2022/09/24 15:15:15;;;;;;;;;;;;;;;20.16;36.40;100305.84;5342297;32;34006;-74
2022/09/24 15:18:18;;;;;;;;;;;;;;;20.61;35.40;100309.31;5308728;32;33149;-66
2022/09/24 15:21:20;;;;;;;;;;;;;;;20.32;35.74;100308.97;5329755;32;33796;-74
2022/09/24 15:24:22;;;;;;;;;;;;;;;20.25;36.19;100310.44;5317458;32;34155;-72
2022/09/24 15:27:28;;;;;;;;;;;;;;;20.30;36.33;100308.25;5316575;32;44595;-66
2022/09/24 15:30:30;;;;;;;;;;;;;;;20.20;36.65;100308.13;5340366;32;33136;-73
2022/09/24 15:33:32;;;;;;;;;;;;;;;20.21;36.61;100304.47;5323520;32;34297;-73
2022/09/24 15:36:34;;;;;;;;;;;;;;;19.84;37.46;100305.75;5341249;32;33153;-67
2022/09/24 15:39:35;;;;;;;;;;;;;;;19.94;37.66;100309.38;5324562;32;33122;-75
2022/09/24 15:42:37;;;;;;;;;;;;;;;20.39;36.76;100307.50;5298644;33;33410;-66
2022/09/24 15:45:39;;;;;;;;;;;;;;;20.29;37.10;100306.56;5321166;32;34037;-67
2022/09/24 15:48:41;;;;;;;;;;;;;;;20.42;36.87;100306.41;5336638;32;32966;-76
2022/09/24 15:51:43;;;;;;;;;;;;;;;20.43;36.99;100308.09;5345826;32;33977;-77
2022/09/24 15:54:45;;;;;;;;;;;;;;;20.36;37.05;100299.75;5341493;32;33075;-68
2022/09/24 15:57:47;;;;;;;;;;;;;;;20.28;37.36;100304.84;5360068;32;33099;-75
2022/09/24 16:00:49;;;;;;;;;;;;;;;20.17;37.64;100302.22;5341154;32;33468;-76
2022/09/24 16:03:52;;;;;;;;;;;;;;;19.94;38.13;100307.53;5335025;32;33738;-76
2022/09/24 16:06:57;;;;;;;;;;;;;;;19.88;38.39;100307.19;5341880;32;45358;-67
2022/09/24 16:09:59;;;;;;;;;;;;;;;20.06;38.09;100295.06;5324760;32;33617;-67